createdAt,value
2022-09-14T00:01:24.748Z,86.21
2022-09-14T00:03:56.753Z,85.83
2022-09-14T00:06:23.955Z,85.39
2022-09-14T00:08:55.080Z,86.02
2022-09-14T00:11:24.080Z,86.16
2022-09-14T00:13:50.985Z,85.84
2022-09-14T00:16:22.821Z,86.20
2022-09-14T00:18:54.421Z,85.97
2022-09-14T00:21:20.795Z,85.52
2022-09-14T00:23:47.203Z,85.17
2022-09-14T00:26:17.276Z,86.07
2022-09-14T00:28:49.526Z,86.30
2022-09-14T00:31:17.584Z,86.91
2022-09-14T00:33:47.343Z,86.47
2022-09-14T00:36:20.117Z,86.33
2022-09-14T00:38:47.714Z,86.75
2022-09-14T00:41:20.445Z,86.27
2022-09-14T00:43:59.552Z,86.33
2022-09-14T00:46:29.080Z,85.82
2022-09-14T00:48:59.903Z,85.71
2022-09-14T00:51:29.363Z,85.89
2022-09-14T00:53:55.960Z,85.96
2022-09-14T00:56:22.484Z,86.24
2022-09-14T00:58:52.383Z,86.62
2022-09-14T01:01:19.470Z,86.39
2022-09-14T01:03:45.891Z,86.79
2022-09-14T01:06:42.262Z,86.52
2022-09-14T01:09:33.743Z,86.76
2022-09-14T01:12:21.511Z,86.79
2022-09-14T01:14:59.919Z,87.12
2022-09-14T01:17:53.882Z,87.73
2022-09-14T01:20:27.816Z,87.38
2022-09-14T01:23:10.294Z,88.63
2022-09-14T01:25:58.965Z,88.46
2022-09-14T01:28:30.367Z,88.13
2022-09-14T01:31:00.859Z,87.87
2022-09-14T01:33:42.751Z,87.38
2022-09-14T01:36:13.725Z,87.16
2022-09-14T01:38:50.928Z,86.87
2022-09-14T01:41:21.603Z,87.28
2022-09-14T01:44:12.116Z,87.47
2022-09-14T01:46:44.464Z,87.31
2022-09-14T01:49:19.288Z,87.01
2022-09-14T01:51:54.714Z,87.09
2022-09-14T01:54:34.603Z,86.62
2022-09-14T01:57:15.321Z,86.67
2022-09-14T01:59:45.300Z,86.87
2022-09-14T02:02:21.051Z,87.58
2022-09-14T02:04:53.509Z,86.80
2022-09-14T02:07:21.027Z,86.93
2022-09-14T02:09:49.030Z,87.19
2022-09-14T02:12:16.436Z,88.99
2022-09-14T02:14:47.450Z,88.61
2022-09-14T02:17:14.076Z,88.26
2022-09-14T02:20:03.364Z,88.42
2022-09-14T02:22:31.107Z,88.38
2022-09-14T02:24:58.243Z,90.27
2022-09-14T02:27:25.404Z,90.20
2022-09-14T02:29:52.774Z,89.53
2022-09-14T02:32:48.076Z,89.97
2022-09-14T02:35:21.668Z,89.97
2022-09-14T02:37:48.501Z,89.64
2022-09-14T02:40:32.546Z,89.40
2022-09-14T02:43:33.354Z,89.31
2022-09-14T02:45:59.681Z,88.59
2022-09-14T02:48:44.083Z,88.88
2022-09-14T02:51:13.684Z,89.79
2022-09-14T02:53:45.163Z,89.93
2022-09-14T02:56:13.004Z,89.61
2022-09-14T02:58:42.675Z,89.75
2022-09-14T03:01:11.885Z,89.04
2022-09-14T03:03:38.609Z,89.36
2022-09-14T03:06:06.127Z,89.44
2022-09-14T03:08:32.976Z,89.14
2022-09-14T03:10:59.507Z,89.06
2022-09-14T03:13:26.307Z,89.12
2022-09-14T03:15:53.445Z,89.36
2022-09-14T03:18:20.039Z,89.50
2022-09-14T03:20:46.867Z,89.93
2022-09-14T03:23:14.231Z,90.14
2022-09-14T03:25:43.896Z,89.86
2022-09-14T03:28:11.951Z,89.63
2022-09-14T03:30:38.279Z,89.68
2022-09-14T03:33:05.599Z,88.97
2022-09-14T03:35:32.275Z,88.85
2022-09-14T03:37:59.724Z,89.06
2022-09-14T03:40:27.662Z,89.33
2022-09-14T03:42:54.535Z,89.47
2022-09-14T03:45:21.755Z,89.17
2022-09-14T03:47:49.461Z,89.29
2022-09-14T03:50:17.488Z,89.15
2022-09-14T03:52:43.926Z,89.40
2022-09-14T03:55:11.263Z,89.64
2022-09-14T03:57:37.948Z,91.36
2022-09-14T04:00:05.555Z,91.94
2022-09-14T04:02:32.622Z,91.60
2022-09-14T04:04:58.970Z,91.80
2022-09-14T04:07:25.481Z,91.52
2022-09-14T04:09:52.350Z,91.12
2022-09-14T04:12:18.679Z,90.65
2022-09-14T04:14:45.026Z,90.59
2022-09-14T04:17:11.776Z,90.18
2022-09-14T04:19:38.463Z,90.34
2022-09-14T04:22:05.296Z,89.90
2022-09-14T04:24:32.146Z,90.16
2022-09-14T04:26:58.630Z,89.75
2022-09-14T04:29:25.170Z,90.20
2022-09-14T04:31:52.029Z,90.64
2022-09-14T04:34:18.407Z,89.86
2022-09-14T04:36:44.711Z,90.13
2022-09-14T04:39:14.207Z,90.78
2022-09-14T04:41:40.840Z,90.53
2022-09-14T04:44:07.350Z,90.54
2022-09-14T04:46:43.628Z,90.18
2022-09-14T04:49:12.858Z,90.13
2022-09-14T04:51:39.442Z,89.85
2022-09-14T04:54:07.384Z,90.26
2022-09-14T04:56:36.722Z,89.84
2022-09-14T04:59:04.360Z,89.89
2022-09-14T05:01:37.293Z,90.22
2022-09-14T05:04:04.893Z,90.43
2022-09-14T05:06:33.634Z,89.92
2022-09-14T05:09:01.908Z,90.50
2022-09-14T05:11:32.603Z,90.35
2022-09-14T05:14:00.088Z,90.29
2022-09-14T05:16:28.541Z,90.37
2022-09-14T05:18:57.596Z,90.14
2022-09-14T05:21:24.926Z,90.66
2022-09-14T05:23:56.808Z,91.73
2022-09-14T05:26:24.556Z,91.93
2022-09-14T05:28:54.057Z,92.23
2022-09-14T05:31:21.921Z,91.72
2022-09-14T05:33:48.483Z,90.84
2022-09-14T05:36:15.388Z,91.31
2022-09-14T05:38:43.339Z,91.39
2022-09-14T05:41:14.638Z,92.90
2022-09-14T05:43:41.826Z,92.74
2022-09-14T05:46:12.410Z,93.55
2022-09-14T05:48:39.847Z,94.01
2022-09-14T05:51:10.099Z,94.22
2022-09-14T05:53:37.187Z,94.31
2022-09-14T05:56:07.192Z,94.09
2022-09-14T05:58:36.484Z,93.78
2022-09-14T06:01:10.442Z,93.63
2022-09-14T06:03:38.279Z,93.85
2022-09-14T06:06:06.807Z,93.77
2022-09-14T06:08:34.060Z,94.05
2022-09-14T06:11:12.410Z,94.02
2022-09-14T06:13:38.969Z,94.23
2022-09-14T06:16:08.253Z,93.45
2022-09-14T06:18:36.599Z,93.57
2022-09-14T06:21:04.253Z,93.39
2022-09-14T06:23:31.759Z,93.05
2022-09-14T06:26:00.738Z,92.74
2022-09-14T06:28:28.296Z,92.72
2022-09-14T06:30:55.639Z,92.89
2022-09-14T06:33:23.123Z,92.78
2022-09-14T06:35:58.487Z,92.26
2022-09-14T06:38:25.758Z,92.20
2022-09-14T06:40:54.061Z,92.14
2022-09-14T06:43:20.473Z,91.24
2022-09-14T06:45:59.235Z,89.17
2022-09-14T06:48:27.053Z,89.19
2022-09-14T06:50:54.081Z,86.12
2022-09-14T06:53:21.205Z,86.93
2022-09-14T06:55:47.594Z,83.20
2022-09-14T06:58:14.515Z,78.82
2022-09-14T07:00:41.416Z,80.32
2022-09-14T07:03:07.827Z,80.12
2022-09-14T07:05:34.845Z,81.83
2022-09-14T07:08:01.486Z,81.01
2022-09-14T07:10:28.251Z,83.87
2022-09-14T07:12:55.388Z,82.37
2022-09-14T07:15:22.099Z,81.65
2022-09-14T07:17:48.415Z,83.46
2022-09-14T07:20:16.100Z,83.05
2022-09-14T07:22:42.958Z,81.77
2022-09-14T07:25:10.321Z,83.07
2022-09-14T07:27:39.713Z,81.63
2022-09-14T07:30:07.870Z,84.43
2022-09-14T07:32:34.717Z,84.47
2022-09-14T07:35:01.428Z,84.29
2022-09-14T07:37:29.859Z,85.63
2022-09-14T07:39:57.229Z,85.46
2022-09-14T07:42:23.723Z,84.28
2022-09-14T07:44:50.520Z,84.00
2022-09-14T07:47:16.920Z,83.76
2022-09-14T07:49:43.295Z,83.69
2022-09-14T07:52:11.587Z,82.53
2022-09-14T07:54:38.846Z,82.78
2022-09-14T07:57:05.186Z,82.42
2022-09-14T07:59:36.067Z,82.08
2022-09-14T08:02:06.513Z,82.96
2022-09-14T08:04:35.510Z,83.56
2022-09-14T08:07:02.027Z,83.81
2022-09-14T08:09:29.230Z,82.72
2022-09-14T08:11:56.004Z,83.01
2022-09-14T08:14:22.560Z,83.38
2022-09-14T08:16:49.406Z,82.56
2022-09-14T08:19:19.574Z,82.32
2022-09-14T08:21:47.959Z,80.92
2022-09-14T08:24:18.535Z,79.81
2022-09-14T08:26:46.213Z,80.71
2022-09-14T08:29:13.716Z,78.87
2022-09-14T08:31:40.987Z,78.70
2022-09-14T08:34:07.867Z,78.81
2022-09-14T08:36:36.891Z,78.74
2022-09-14T08:39:09.341Z,76.76
2022-09-14T08:41:38.996Z,76.42
2022-09-14T08:44:13.368Z,73.26
2022-09-14T08:46:44.379Z,73.54
2022-09-14T08:49:19.719Z,73.25
2022-09-14T08:51:46.218Z,74.06
2022-09-14T08:54:12.652Z,74.46
2022-09-14T08:56:44.898Z,72.84
2022-09-14T08:59:24.874Z,74.17
2022-09-14T09:02:11.286Z,72.88
2022-09-14T09:05:11.955Z,70.21
2022-09-14T09:07:57.172Z,71.38
2022-09-14T09:10:26.658Z,68.73
2022-09-14T09:12:57.151Z,66.64
2022-09-14T09:15:37.292Z,66.31
2022-09-14T09:18:26.351Z,68.28
2022-09-14T09:21:01.882Z,67.31
2022-09-14T09:23:29.742Z,67.37
2022-09-14T09:26:04.984Z,62.03
2022-09-14T09:28:32.374Z,64.48
2022-09-14T09:31:05.098Z,61.50
2022-09-14T09:33:31.821Z,60.06
2022-09-14T09:35:59.395Z,63.37
2022-09-14T09:38:28.626Z,65.78
2022-09-14T09:41:01.842Z,64.14
2022-09-14T09:43:48.500Z,62.37
2022-09-14T09:46:14.934Z,60.54
2022-09-14T09:48:44.878Z,59.43
2022-09-14T09:51:14.794Z,57.14
2022-09-14T09:53:51.389Z,61.08
2022-09-14T09:56:21.355Z,60.60
2022-09-14T09:58:51.509Z,58.50
2022-09-14T10:01:20.585Z,58.98
2022-09-14T10:04:01.999Z,62.44
2022-09-14T10:06:28.448Z,58.34
2022-09-14T10:08:57.411Z,62.09
2022-09-14T10:11:37.617Z,58.24
2022-09-14T10:14:23.805Z,57.60
2022-09-14T10:16:50.808Z,57.84
2022-09-14T10:19:24.378Z,56.87
2022-09-14T10:22:20.922Z,52.57
2022-09-14T10:24:57.668Z,53.89
2022-09-14T10:27:38.341Z,53.25
2022-09-14T10:30:07.073Z,51.03
2022-09-14T10:32:34.584Z,49.39
2022-09-14T10:35:00.966Z,50.23
2022-09-14T10:37:28.248Z,51.36
2022-09-14T10:40:03.108Z,51.21
2022-09-14T10:42:37.891Z,54.50
2022-09-14T10:45:04.563Z,52.06
2022-09-14T10:48:15.706Z,50.88
2022-09-14T10:51:19.141Z,54.77
2022-09-14T10:54:05.373Z,54.71
2022-09-14T10:56:58.891Z,50.73
2022-09-14T10:59:31.657Z,49.16
2022-09-14T11:02:28.028Z,51.01
2022-09-14T11:05:03.970Z,55.72
2022-09-14T11:07:53.656Z,51.38
2022-09-14T11:10:57.734Z,54.51
2022-09-14T11:13:37.868Z,50.90
2022-09-14T11:16:16.561Z,53.17
2022-09-14T11:18:56.861Z,53.20
2022-09-14T11:21:35.851Z,55.02
2022-09-14T11:24:13.160Z,54.61
2022-09-14T11:26:44.815Z,55.28
2022-09-14T11:29:31.427Z,55.04
2022-09-14T11:32:22.765Z,56.81
2022-09-14T11:35:02.100Z,56.10
2022-09-14T11:37:39.972Z,56.73
2022-09-14T11:40:18.404Z,58.57
2022-09-14T11:43:12.031Z,59.37
2022-09-14T11:45:56.177Z,57.90
2022-09-14T11:49:03.890Z,57.02
2022-09-14T11:51:36.655Z,58.70
2022-09-14T11:54:03.195Z,60.40
2022-09-14T11:56:34.152Z,59.98
2022-09-14T11:59:06.467Z,62.11
2022-09-14T12:01:40.815Z,64.54
2022-09-14T12:04:08.823Z,64.09
2022-09-14T12:06:37.891Z,64.63
2022-09-14T12:09:21.548Z,65.95
2022-09-14T12:11:53.679Z,64.67
2022-09-14T12:14:31.997Z,65.84
2022-09-14T12:17:39.292Z,65.32
2022-09-14T12:20:43.264Z,64.00
2022-09-14T12:23:16.304Z,65.16
2022-09-14T12:26:10.541Z,64.71
2022-09-14T12:28:37.817Z,65.48
2022-09-14T12:31:04.277Z,65.34
2022-09-14T12:33:33.400Z,65.44
2022-09-14T12:36:06.159Z,66.56
2022-09-14T12:38:38.581Z,65.99
2022-09-14T12:41:07.946Z,66.11
2022-09-14T12:43:37.399Z,65.50
2022-09-14T12:46:24.411Z,64.93
2022-09-14T12:48:53.411Z,65.68
2022-09-14T12:51:29.114Z,66.79
2022-09-14T12:53:59.043Z,65.97
2022-09-14T12:56:40.819Z,65.98
2022-09-14T12:59:16.362Z,66.21
2022-09-14T13:02:01.583Z,66.92
2022-09-14T13:04:34.620Z,66.91
2022-09-14T13:07:05.826Z,66.53
2022-09-14T13:09:33.648Z,66.66
2022-09-14T13:12:06.820Z,66.31
2022-09-14T13:14:52.794Z,66.25
2022-09-14T13:17:19.573Z,67.34
2022-09-14T13:19:57.900Z,67.51
2022-09-14T13:22:26.767Z,67.16
2022-09-14T13:24:53.816Z,66.32
2022-09-14T13:27:27.641Z,67.47
2022-09-14T13:30:20.436Z,62.62
2022-09-14T13:32:51.984Z,61.46
2022-09-14T13:35:27.491Z,60.36
2022-09-14T13:37:54.523Z,61.29
2022-09-14T13:40:30.175Z,60.25
2022-09-14T13:42:58.802Z,64.18
2022-09-14T13:45:25.943Z,60.79
2022-09-14T13:47:54.135Z,58.85
2022-09-14T13:50:25.475Z,58.33
2022-09-14T13:53:07.802Z,58.10
2022-09-14T13:55:34.300Z,58.20
2022-09-14T13:58:09.566Z,57.84
2022-09-14T14:00:52.684Z,56.85
2022-09-14T14:03:38.240Z,56.30
2022-09-14T14:06:30.083Z,55.48
2022-09-14T14:09:04.273Z,56.53
2022-09-14T14:11:48.207Z,56.76
2022-09-14T14:14:17.461Z,57.97
2022-09-14T14:17:21.405Z,57.16
2022-09-14T14:19:49.454Z,59.83
2022-09-14T14:22:15.715Z,59.64
2022-09-14T14:25:09.202Z,59.35
2022-09-14T14:27:36.843Z,60.25
2022-09-14T14:30:14.605Z,59.77
2022-09-14T14:32:41.469Z,60.37
2022-09-14T14:35:15.537Z,60.62
2022-09-14T14:37:41.925Z,61.26
2022-09-14T14:40:11.059Z,62.74
2022-09-14T14:42:37.830Z,63.37
2022-09-14T14:45:05.568Z,61.49
2022-09-14T14:47:32.613Z,61.75
2022-09-14T14:49:59.544Z,63.82
2022-09-14T14:52:25.843Z,64.55
2022-09-14T14:54:53.398Z,65.63
2022-09-14T14:57:19.760Z,66.65
2022-09-14T14:59:46.917Z,69.06
2022-09-14T15:02:13.587Z,69.68
2022-09-14T15:04:39.895Z,68.73
2022-09-14T15:07:06.355Z,70.90
2022-09-14T15:09:32.738Z,71.41
2022-09-14T15:11:59.191Z,72.49
2022-09-14T15:14:27.551Z,71.41
2022-09-14T15:16:59.515Z,73.02
2022-09-14T15:19:26.627Z,71.65
2022-09-14T15:21:55.282Z,73.08
2022-09-14T15:24:25.541Z,72.28
2022-09-14T15:26:52.812Z,75.65
2022-09-14T15:29:19.941Z,72.94
2022-09-14T15:31:46.879Z,72.76
2022-09-14T15:34:13.251Z,73.57
2022-09-14T15:36:52.861Z,74.59
2022-09-14T15:39:27.946Z,75.22
2022-09-14T15:41:55.072Z,77.00
2022-09-14T15:44:22.204Z,78.20
2022-09-14T15:46:49.645Z,79.38
2022-09-14T15:49:19.547Z,80.40
2022-09-14T15:51:48.151Z,81.60
2022-09-14T15:54:14.752Z,81.59
2022-09-14T15:56:42.225Z,82.38
2022-09-14T15:59:09.031Z,82.23
2022-09-14T16:01:37.099Z,81.69
2022-09-14T16:04:08.402Z,80.54
2022-09-14T16:06:38.601Z,81.29
2022-09-14T16:09:07.211Z,80.72
2022-09-14T16:11:35.307Z,80.37
2022-09-14T16:14:02.926Z,81.28
2022-09-14T16:16:30.724Z,81.09
2022-09-14T16:18:57.329Z,84.55
2022-09-14T16:21:27.126Z,83.77
2022-09-14T16:23:56.843Z,83.78
2022-09-14T16:26:26.823Z,83.40
2022-09-14T16:28:54.520Z,83.78
2022-09-14T16:31:24.718Z,84.28
2022-09-14T16:33:53.373Z,84.49
2022-09-14T16:36:24.600Z,84.52
2022-09-14T16:38:51.546Z,83.71
2022-09-14T16:41:18.388Z,83.65
2022-09-14T16:43:45.005Z,84.34
2022-09-14T16:46:15.255Z,84.97
2022-09-14T16:48:44.239Z,84.81
2022-09-14T16:51:11.919Z,84.43
2022-09-14T16:53:40.867Z,85.46
2022-09-14T16:56:13.308Z,85.70
2022-09-14T16:58:39.622Z,86.79
2022-09-14T17:01:13.797Z,86.78
2022-09-14T17:03:41.555Z,87.11
2022-09-14T17:06:10.499Z,87.66
2022-09-14T17:08:43.080Z,87.65
2022-09-14T17:11:11.861Z,88.10
2022-09-14T17:13:39.511Z,88.14
2022-09-14T17:16:08.901Z,88.35
2022-09-14T17:18:37.192Z,88.47
2022-09-14T17:21:07.531Z,88.90
2022-09-14T17:23:34.728Z,88.01
2022-09-14T17:26:05.387Z,88.02
2022-09-14T17:28:33.727Z,88.31
2022-09-14T17:31:03.232Z,88.56
2022-09-14T17:33:30.685Z,88.41
2022-09-14T17:35:59.646Z,88.60
2022-09-14T17:38:28.908Z,89.42
2022-09-14T17:41:07.371Z,89.01
2022-09-14T17:43:35.415Z,88.94
2022-09-14T17:46:03.236Z,88.33
2022-09-14T17:48:35.816Z,88.26
2022-09-14T17:51:15.819Z,87.84
2022-09-14T17:53:45.761Z,87.33
2022-09-14T17:56:14.621Z,87.38
2022-09-14T17:58:42.105Z,87.05
2022-09-14T18:01:18.619Z,87.85
2022-09-14T18:03:56.990Z,87.39
2022-09-14T18:06:26.761Z,88.17
2022-09-14T18:08:55.535Z,88.30
2022-09-14T18:11:22.667Z,88.85
2022-09-14T18:13:50.700Z,89.19
2022-09-14T18:16:19.734Z,89.84
2022-09-14T18:18:46.683Z,89.79
2022-09-14T18:21:14.794Z,90.20
2022-09-14T18:23:41.148Z,90.13
2022-09-14T18:26:07.938Z,89.98
2022-09-14T18:28:36.767Z,89.89
2022-09-14T18:31:10.083Z,89.58
2022-09-14T18:33:37.224Z,89.93
2022-09-14T18:36:05.770Z,89.31
2022-09-14T18:38:33.019Z,88.99
2022-09-14T18:41:05.447Z,88.43
2022-09-14T18:43:32.090Z,88.25
2022-09-14T18:45:58.595Z,87.99
2022-09-14T18:48:25.615Z,88.07
2022-09-14T18:50:51.991Z,88.60
2022-09-14T18:53:18.319Z,88.51
2022-09-14T18:55:45.268Z,88.27
2022-09-14T18:58:11.595Z,88.34
2022-09-14T19:00:45.770Z,87.88
2022-09-14T19:03:12.734Z,88.23
2022-09-14T19:05:42.943Z,88.54
2022-09-14T19:08:10.535Z,88.40
2022-09-14T19:10:37.895Z,88.55
2022-09-14T19:13:06.028Z,88.40
2022-09-14T19:15:33.386Z,88.53
2022-09-14T19:17:59.848Z,87.44
2022-09-14T19:20:38.162Z,86.80
2022-09-14T19:23:12.535Z,86.45
2022-09-14T19:25:40.386Z,86.40
2022-09-14T19:28:07.930Z,85.77
2022-09-14T19:30:36.316Z,86.13
2022-09-14T19:33:02.955Z,86.45
2022-09-14T19:35:30.786Z,87.05
2022-09-14T19:37:57.738Z,87.22
2022-09-14T19:40:24.503Z,87.02
2022-09-14T19:42:52.341Z,87.38
2022-09-14T19:45:19.225Z,87.60
2022-09-14T19:47:45.739Z,87.63
2022-09-14T19:50:12.425Z,88.08
2022-09-14T19:52:38.778Z,88.27
2022-09-14T19:55:05.456Z,88.00
2022-09-14T19:57:31.991Z,88.71
2022-09-14T19:59:58.503Z,87.60
2022-09-14T20:02:24.927Z,86.27
2022-09-14T20:04:51.308Z,85.75
2022-09-14T20:07:18.195Z,84.70
2022-09-14T20:09:44.535Z,84.16
2022-09-14T20:12:10.915Z,84.05
2022-09-14T20:14:37.567Z,84.43
2022-09-14T20:17:04.500Z,84.10
2022-09-14T20:19:32.484Z,84.39
2022-09-14T20:21:58.842Z,84.10
2022-09-14T20:24:27.682Z,84.20
2022-09-14T20:26:56.590Z,84.35
2022-09-14T20:29:25.484Z,83.32
2022-09-14T20:31:52.045Z,83.19
2022-09-14T20:34:20.412Z,83.25
2022-09-14T20:36:49.590Z,83.15
2022-09-14T20:39:16.259Z,83.15
2022-09-14T20:41:42.808Z,83.14
2022-09-14T20:44:10.202Z,83.10
2022-09-14T20:46:42.645Z,83.22
2022-09-14T20:49:16.433Z,83.86
2022-09-14T20:51:43.401Z,84.14
2022-09-14T20:54:14.515Z,84.05
2022-09-14T20:56:42.174Z,84.02
2022-09-14T20:59:15.924Z,84.39
2022-09-14T21:01:44.855Z,84.35
2022-09-14T21:04:17.060Z,84.68
2022-09-14T21:06:49.909Z,84.55
2022-09-14T21:09:18.021Z,83.63
2022-09-14T21:11:48.058Z,83.49
2022-09-14T21:14:16.398Z,83.58
2022-09-14T21:16:45.978Z,83.90
2022-09-14T21:19:19.803Z,83.96
2022-09-14T21:21:47.492Z,84.28
2022-09-14T21:24:15.138Z,84.11
2022-09-14T21:26:43.335Z,84.79
2022-09-14T21:29:14.318Z,84.85
2022-09-14T21:31:41.030Z,85.25
2022-09-14T21:34:10.592Z,85.55
2022-09-14T21:36:40.139Z,85.28
2022-09-14T21:39:12.727Z,85.19
2022-09-14T21:41:40.910Z,85.68
2022-09-14T21:44:07.899Z,85.76
2022-09-14T21:46:34.304Z,85.82
2022-09-14T21:49:01.372Z,86.71
2022-09-14T21:51:34.901Z,86.86
2022-09-14T21:54:10.221Z,86.94
2022-09-14T21:56:38.682Z,86.81
2022-09-14T21:59:08.662Z,86.44
2022-09-14T22:01:35.247Z,86.13
2022-09-14T22:04:02.307Z,87.61
2022-09-14T22:06:30.789Z,87.50
2022-09-14T22:08:59.760Z,87.05
2022-09-14T22:11:29.198Z,87.45
2022-09-14T22:13:58.816Z,88.22
2022-09-14T22:16:26.818Z,88.09
2022-09-14T22:18:58.727Z,87.72
2022-09-14T22:21:27.290Z,87.69
2022-09-14T22:23:59.550Z,88.17
2022-09-14T22:26:28.487Z,88.26
2022-09-14T22:28:55.366Z,88.72
2022-09-14T22:31:23.631Z,88.64
2022-09-14T22:33:51.137Z,88.46
2022-09-14T22:36:17.735Z,88.10
2022-09-14T22:38:44.123Z,88.35
2022-09-14T22:41:17.544Z,88.45
2022-09-14T22:43:45.201Z,88.39
2022-09-14T22:46:12.533Z,88.49
2022-09-14T22:48:40.035Z,88.37
2022-09-14T22:51:08.223Z,88.55
2022-09-14T22:53:34.672Z,88.88
2022-09-14T22:56:12.165Z,88.58
2022-09-14T22:58:38.469Z,88.77
2022-09-14T23:01:07.377Z,88.88
2022-09-14T23:03:34.672Z,89.49
2022-09-14T23:06:02.426Z,90.09
2022-09-14T23:08:30.020Z,90.43
2022-09-14T23:10:56.619Z,90.47
2022-09-14T23:13:23.860Z,90.78
2022-09-14T23:15:50.228Z,91.11
2022-09-14T23:18:16.552Z,90.93
2022-09-14T23:20:45.124Z,90.69
2022-09-14T23:23:12.375Z,90.76
2022-09-14T23:25:40.435Z,90.72
2022-09-14T23:28:10.175Z,90.31
2022-09-14T23:30:36.553Z,91.29
2022-09-14T23:33:03.120Z,90.97
2022-09-14T23:35:30.203Z,90.95
2022-09-14T23:37:57.047Z,90.87
2022-09-14T23:40:24.591Z,90.82
2022-09-14T23:42:50.986Z,91.07
2022-09-14T23:45:17.543Z,90.96
2022-09-14T23:47:46.263Z,90.91
2022-09-14T23:50:13.307Z,91.28
2022-09-14T23:52:40.461Z,90.93
2022-09-14T23:55:07.232Z,90.64
2022-09-14T23:57:33.920Z,90.79
